Time;durP1;ratioP1;P1;durP2;ratioP2;P2;SDS_P1;SDS_P2;PMS_P1;PMS_P2;Temp;Humidity;BMP_temperature;BMP_pressure;BME280_temperature;BME280_humidity;BME280_pressure;Samples;Min_cycle;Max_cycle;Signal;HPM_P1;HPM_P2
2023/06/09 00:00:26;;;;;;;1.73;1.73;;;;;;;;;;5004395;28;20515;-79
2023/06/09 00:02:52;;;;;;;1.70;1.70;;;;;;;;;;5020007;28;20042;-79
2023/06/09 00:05:18;;;;;;;1.80;1.70;;;;;;;;;;5004223;28;20026;-79
2023/06/09 00:07:47;;;;;;;1.75;1.65;;;;;;;;;;5002533;28;20026;-79
2023/06/09 00:10:13;;;;;;;1.70;1.60;;;;;;;;;;5002503;28;20037;-79
2023/06/09 00:12:40;;;;;;;1.80;1.70;;;;;;;;;;5001465;28;20046;-79
2023/06/09 00:15:07;;;;;;;1.88;1.70;;;;;;;;;;5005402;28;20489;-79
2023/06/09 00:17:34;;;;;;;1.63;1.52;;;;;;;;;;5004505;28;20125;-79
2023/06/09 00:20:03;;;;;;;1.80;1.70;;;;;;;;;;4989026;28;20069;-79
2023/06/09 00:22:31;;;;;;;1.60;1.50;;;;;;;;;;4999523;28;20522;-79
2023/06/09 00:24:57;;;;;;;1.40;1.40;;;;;;;;;;4988258;28;20480;-79
2023/06/09 00:27:24;;;;;;;1.60;1.50;;;;;;;;;;4998244;28;20571;-79
2023/06/09 00:29:50;;;;;;;1.60;1.50;;;;;;;;;;4986421;28;20042;-79
2023/06/09 00:32:16;;;;;;;1.20;1.20;;;;;;;;;;5005772;28;20121;-79
2023/06/09 00:34:43;;;;;;;1.48;1.48;;;;;;;;;;5001124;28;20189;-79
2023/06/09 00:37:09;;;;;;;1.60;1.50;;;;;;;;;;5003977;28;20128;-79
2023/06/09 00:39:35;;;;;;;1.50;1.40;;;;;;;;;;5003122;28;20030;-79
2023/06/09 00:42:01;;;;;;;1.75;1.65;;;;;;;;;;4997437;28;20050;-79
2023/06/09 00:44:27;;;;;;;1.80;1.70;;;;;;;;;;5017570;28;20049;-79
2023/06/09 00:46:53;;;;;;;1.40;1.40;;;;;;;;;;5004318;28;20046;-79
2023/06/09 00:49:19;;;;;;;1.52;1.52;;;;;;;;;;5001337;28;20080;-79
2023/06/09 00:51:45;;;;;;;1.55;1.55;;;;;;;;;;4984773;28;20047;-79
2023/06/09 00:54:14;;;;;;;1.60;1.60;;;;;;;;;;4999068;28;20038;-79
2023/06/09 00:56:40;;;;;;;1.58;1.50;;;;;;;;;;5001449;28;20053;-79
2023/06/09 00:59:07;;;;;;;1.30;1.30;;;;;;;;;;5000896;28;20049;-79
2023/06/09 01:01:33;;;;;;;1.30;1.30;;;;;;;;;;4984295;28;20121;-79
2023/06/09 01:04:00;;;;;;;1.35;1.35;;;;;;;;;;4998911;28;20050;-79
2023/06/09 01:06:38;;;;;;;1.95;1.85;;;;;;;;;;4999293;28;20034;-79
2023/06/09 01:09:17;;;;;;;1.30;1.30;;;;;;;;;;4998824;28;20524;-79
2023/06/09 01:12:02;;;;;;;1.60;1.50;;;;;;;;;;4997694;28;20047;-79
2023/06/09 01:14:29;;;;;;;1.50;1.42;;;;;;;;;;5003592;28;20112;-79
2023/06/09 01:16:59;;;;;;;1.58;1.48;;;;;;;;;;4988123;28;20119;-79
2023/06/09 01:19:32;;;;;;;1.95;1.85;;;;;;;;;;4986559;28;20067;-79
2023/06/09 01:22:00;;;;;;;1.60;1.60;;;;;;;;;;5000620;28;20046;-79
2023/06/09 01:24:48;;;;;;;1.60;1.60;;;;;;;;;;5020101;28;20046;-79
2023/06/09 01:27:16;;;;;;;1.63;1.42;;;;;;;;;;5014070;28;20084;-79
2023/06/09 01:29:43;;;;;;;1.50;1.50;;;;;;;;;;5013927;28;20042;-79
2023/06/09 01:32:09;;;;;;;1.65;1.55;;;;;;;;;;5002989;28;20096;-78
2023/06/09 01:34:35;;;;;;;1.27;1.27;;;;;;;;;;4987504;28;20041;-79
2023/06/09 01:37:01;;;;;;;1.90;1.80;;;;;;;;;;4994591;28;20041;-79
2023/06/09 01:39:27;;;;;;;1.50;1.40;;;;;;;;;;4999734;28;20049;-79
2023/06/09 01:41:53;;;;;;;1.30;1.30;;;;;;;;;;4982216;28;20091;-79
2023/06/09 01:44:19;;;;;;;2.00;1.50;;;;;;;;;;5006651;28;20183;-79
2023/06/09 01:46:45;;;;;;;1.35;1.35;;;;;;;;;;4998726;28;20061;-79
2023/06/09 01:49:12;;;;;;;1.33;1.33;;;;;;;;;;5001110;28;20056;-79
2023/06/09 01:51:43;;;;;;;1.45;1.35;;;;;;;;;;4999041;28;20488;-79
2023/06/09 01:54:10;;;;;;;1.30;1.30;;;;;;;;;;5018356;28;20051;-78
2023/06/09 01:56:59;;;;;;;1.30;1.30;;;;;;;;;;4995332;28;20042;-78
2023/06/09 01:59:26;;;;;;;1.70;1.60;;;;;;;;;;4996642;28;20066;-78
2023/06/09 02:01:52;;;;;;;1.58;1.58;;;;;;;;;;4998551;28;20057;-78
2023/06/09 02:04:19;;;;;;;1.55;1.55;;;;;;;;;;5005009;28;20038;-79
2023/06/09 02:06:45;;;;;;;1.35;1.25;;;;;;;;;;4997422;28;20065;-79
2023/06/09 02:09:11;;;;;;;1.40;1.40;;;;;;;;;;4985223;28;20505;-79
2023/06/09 02:11:37;;;;;;;1.60;1.55;;;;;;;;;;4986152;28;20052;-79
2023/06/09 02:14:03;;;;;;;1.23;1.23;;;;;;;;;;5001901;28;20045;-79
2023/06/09 02:16:29;;;;;;;1.35;1.35;;;;;;;;;;4997799;28;20169;-79
2023/06/09 02:18:57;;;;;;;1.90;1.80;;;;;;;;;;5002760;28;20095;-79
2023/06/09 02:21:23;;;;;;;1.60;1.60;;;;;;;;;;5001088;28;20050;-79
2023/06/09 02:23:49;;;;;;;1.55;1.52;;;;;;;;;;5013089;28;20523;-79
2023/06/09 02:26:15;;;;;;;1.35;1.35;;;;;;;;;;4998982;28;20095;-78
2023/06/09 02:28:41;;;;;;;1.42;1.42;;;;;;;;;;5002552;28;20144;-79
2023/06/09 02:31:07;;;;;;;1.50;1.50;;;;;;;;;;5001638;28;20045;-79
2023/06/09 02:33:33;;;;;;;1.60;1.50;;;;;;;;;;4999744;28;20755;-79
2023/06/09 02:35:59;;;;;;;1.88;1.77;;;;;;;;;;5000075;28;20058;-79
2023/06/09 02:38:26;;;;;;;1.50;1.50;;;;;;;;;;5000089;28;20041;-79
2023/06/09 02:40:52;;;;;;;1.73;1.63;;;;;;;;;;4985233;28;20064;-79
2023/06/09 02:43:18;;;;;;;1.42;1.42;;;;;;;;;;4999414;28;20054;-79
2023/06/09 02:45:44;;;;;;;1.58;1.48;;;;;;;;;;4986390;28;20065;-79
2023/06/09 02:48:10;;;;;;;1.50;1.50;;;;;;;;;;5016627;28;20038;-79
2023/06/09 02:50:36;;;;;;;1.35;1.33;;;;;;;;;;5003180;28;20045;-79
2023/06/09 02:53:02;;;;;;;1.40;1.40;;;;;;;;;;5001436;28;20053;-79
2023/06/09 02:55:28;;;;;;;1.30;1.30;;;;;;;;;;5004566;28;20046;-79
2023/06/09 02:57:54;;;;;;;1.80;1.70;;;;;;;;;;5003818;28;20053;-79
2023/06/09 03:00:20;;;;;;;1.38;1.38;;;;;;;;;;5005423;28;20038;-79
2023/06/09 03:02:46;;;;;;;1.58;1.58;;;;;;;;;;5006142;28;20038;-79
2023/06/09 03:05:13;;;;;;;1.50;1.50;;;;;;;;;;5004862;28;20050;-79
2023/06/09 03:07:39;;;;;;;1.70;1.60;;;;;;;;;;5003010;28;20058;-79
2023/06/09 03:10:06;;;;;;;1.33;1.33;;;;;;;;;;4998560;28;20424;-79
2023/06/09 03:12:32;;;;;;;1.63;1.52;;;;;;;;;;5004615;28;20149;-79
2023/06/09 03:14:58;;;;;;;1.40;1.40;;;;;;;;;;5005539;28;20101;-79
2023/06/09 03:17:25;;;;;;;1.10;1.10;;;;;;;;;;4991876;28;20049;-79
2023/06/09 03:19:51;;;;;;;1.42;1.42;;;;;;;;;;5000746;28;20038;-79
2023/06/09 03:22:17;;;;;;;1.58;1.58;;;;;;;;;;5016199;28;20050;-79
2023/06/09 03:24:44;;;;;;;1.95;1.85;;;;;;;;;;5004894;28;20454;-79
2023/06/09 03:27:10;;;;;;;1.40;1.40;;;;;;;;;;5003109;28;20049;-79
2023/06/09 03:29:36;;;;;;;1.83;1.73;;;;;;;;;;4989511;28;20496;-79
2023/06/09 03:32:02;;;;;;;1.25;1.25;;;;;;;;;;5019144;28;20072;-79
2023/06/09 03:34:29;;;;;;;1.40;1.40;;;;;;;;;;5003063;28;20129;-79
2023/06/09 03:36:55;;;;;;;1.60;1.48;;;;;;;;;;5004414;28;20432;-79
2023/06/09 03:39:21;;;;;;;1.42;1.42;;;;;;;;;;5003550;28;20050;-79
2023/06/09 03:41:47;;;;;;;1.13;1.13;;;;;;;;;;5001419;28;20324;-79
2023/06/09 03:44:13;;;;;;;1.50;1.50;;;;;;;;;;4990517;28;20038;-79
2023/06/09 03:46:39;;;;;;;1.40;1.30;;;;;;;;;;4987737;28;20044;-79
2023/06/09 03:49:05;;;;;;;1.88;1.50;;;;;;;;;;5016981;28;20484;-79
2023/06/09 03:51:31;;;;;;;1.25;1.25;;;;;;;;;;5003988;28;20057;-79
2023/06/09 03:53:57;;;;;;;1.30;1.30;;;;;;;;;;4987185;28;20054;-79
2023/06/09 03:56:23;;;;;;;1.40;1.40;;;;;;;;;;5002115;28;20038;-79
2023/06/09 03:58:49;;;;;;;2.03;1.55;;;;;;;;;;5000125;28;20054;-79
2023/06/09 04:01:17;;;;;;;1.42;1.42;;;;;;;;;;5002157;28;20048;-79
2023/06/09 04:03:43;;;;;;;1.27;1.27;;;;;;;;;;5002011;28;20076;-79
2023/06/09 04:06:09;;;;;;;1.75;1.75;;;;;;;;;;5004648;28;20046;-79
2023/06/09 04:08:36;;;;;;;1.08;1.08;;;;;;;;;;5018664;28;20048;-79
2023/06/09 04:11:02;;;;;;;1.80;1.70;;;;;;;;;;5015452;28;20500;-79
2023/06/09 04:13:28;;;;;;;1.50;1.40;;;;;;;;;;5001264;28;20061;-79
2023/06/09 04:15:54;;;;;;;1.40;1.40;;;;;;;;;;4988427;28;20065;-79
2023/06/09 04:18:20;;;;;;;1.35;1.35;;;;;;;;;;5001506;28;20076;-78
2023/06/09 04:20:46;;;;;;;1.80;1.70;;;;;;;;;;5003686;28;20041;-79
2023/06/09 04:23:12;;;;;;;1.48;1.42;;;;;;;;;;5003649;28;20046;-79
2023/06/09 04:25:40;;;;;;;1.35;1.33;;;;;;;;;;5000226;28;20031;-79
2023/06/09 04:28:06;;;;;;;1.50;1.40;;;;;;;;;;4987987;28;20042;-79
2023/06/09 04:30:34;;;;;;;1.50;1.40;;;;;;;;;;4982435;28;20042;-79
2023/06/09 04:33:00;;;;;;;1.30;1.30;;;;;;;;;;5002898;28;20085;-79
2023/06/09 04:35:26;;;;;;;1.35;1.35;;;;;;;;;;5022076;28;20061;-79
2023/06/09 04:37:52;;;;;;;1.58;1.50;;;;;;;;;;5001155;28;20053;-79
2023/06/09 04:40:29;;;;;;;1.65;1.55;;;;;;;;;;4987370;28;20100;-79
2023/06/09 04:42:56;;;;;;;1.30;1.30;;;;;;;;;;4999990;28;20081;-79
2023/06/09 04:45:43;;;;;;;1.48;1.48;;;;;;;;;;4988778;28;20046;-79
2023/06/09 04:48:08;;;;;;;1.30;1.30;;;;;;;;;;5003366;28;20477;-79
2023/06/09 04:50:37;;;;;;;1.50;1.50;;;;;;;;;;4999003;28;20116;-79
2023/06/09 04:53:07;;;;;;;1.50;1.50;;;;;;;;;;5020596;28;20100;-79
2023/06/09 04:55:33;;;;;;;1.38;1.38;;;;;;;;;;5000872;28;20038;-79
2023/06/09 04:57:59;;;;;;;1.60;1.50;;;;;;;;;;5004268;28;20044;-79
2023/06/09 05:00:26;;;;;;;1.40;1.40;;;;;;;;;;4986103;28;20601;-79
2023/06/09 05:02:53;;;;;;;1.55;1.45;;;;;;;;;;4998784;28;20133;-79
2023/06/09 05:05:19;;;;;;;1.55;1.55;;;;;;;;;;5003015;28;20569;-79
2023/06/09 05:07:45;;;;;;;1.73;1.63;;;;;;;;;;5000015;28;20053;-79
2023/06/09 05:10:11;;;;;;;1.50;1.50;;;;;;;;;;4981699;28;20042;-82
2023/06/09 05:12:37;;;;;;;4.55;2.53;;;;;;;;;;4997165;28;20400;-83
2023/06/09 05:15:03;;;;;;;3.33;3.03;;;;;;;;;;4998340;28;20062;-81
2023/06/09 05:17:30;;;;;;;3.20;2.90;;;;;;;;;;5004186;28;20080;-79
2023/06/09 05:19:56;;;;;;;3.22;3.03;;;;;;;;;;4985256;28;20100;-80
2023/06/09 05:22:22;;;;;;;3.63;3.42;;;;;;;;;;5003646;28;20041;-86
2023/06/09 05:24:48;;;;;;;3.25;3.15;;;;;;;;;;5002419;28;20384;-83
2023/06/09 05:27:20;;;;;;;3.85;3.65;;;;;;;;;;5004921;28;20073;-84
2023/06/09 05:29:46;;;;;;;4.20;3.90;;;;;;;;;;5018436;28;20077;-82
2023/06/09 05:32:12;;;;;;;4.20;4.00;;;;;;;;;;5002728;28;20471;-80
2023/06/09 05:34:39;;;;;;;4.53;4.22;;;;;;;;;;5001568;28;20073;-83
2023/06/09 05:37:05;;;;;;;3.70;3.40;;;;;;;;;;4998850;28;20104;-82
2023/06/09 05:39:31;;;;;;;3.95;3.75;;;;;;;;;;5001768;28;20092;-80
2023/06/09 05:41:57;;;;;;;4.30;4.10;;;;;;;;;;4999264;28;20045;-83
2023/06/09 05:44:23;;;;;;;4.15;3.95;;;;;;;;;;4990973;28;20463;-83
2023/06/09 05:46:49;;;;;;;3.90;3.70;;;;;;;;;;5001566;28;20050;-82
2023/06/09 05:49:16;;;;;;;4.30;3.90;;;;;;;;;;5002759;28;20425;-82
2023/06/09 05:51:42;;;;;;;3.60;3.40;;;;;;;;;;4998378;28;20038;-82
2023/06/09 05:54:09;;;;;;;3.92;3.72;;;;;;;;;;4998578;28;20466;-82
2023/06/09 05:56:37;;;;;;;3.85;3.65;;;;;;;;;;5003946;28;20041;-82
2023/06/09 05:59:03;;;;;;;3.75;3.55;;;;;;;;;;5001235;28;20049;-82
2023/06/09 06:01:32;;;;;;;4.55;4.30;;;;;;;;;;4987324;28;20034;-83
2023/06/09 06:03:59;;;;;;;4.18;3.88;;;;;;;;;;4986533;28;20233;-84
2023/06/09 06:06:25;;;;;;;4.25;4.05;;;;;;;;;;5017014;28;20033;-81
2023/06/09 06:08:51;;;;;;;4.13;3.78;;;;;;;;;;4999994;28;20072;-82
2023/06/09 06:11:17;;;;;;;3.90;3.70;;;;;;;;;;4986696;28;20062;-81
2023/06/09 06:13:43;;;;;;;4.00;3.80;;;;;;;;;;5002533;28;20403;-79
2023/06/09 06:16:09;;;;;;;4.93;4.10;;;;;;;;;;5003864;28;20042;-81
2023/06/09 06:18:35;;;;;;;3.70;3.50;;;;;;;;;;4999969;28;20041;-83
2023/06/09 06:21:11;;;;;;;4.20;3.90;;;;;;;;;;4978220;28;20038;-80
2023/06/09 06:23:37;;;;;;;4.22;3.92;;;;;;;;;;5002912;28;20046;-81
2023/06/09 06:26:05;;;;;;;3.78;3.47;;;;;;;;;;5001110;28;20104;-82
2023/06/09 06:28:31;;;;;;;4.30;4.05;;;;;;;;;;5020521;28;20038;-82
2023/06/09 06:30:57;;;;;;;4.38;3.80;;;;;;;;;;5006354;28;20080;-82
2023/06/09 06:33:23;;;;;;;4.22;3.72;;;;;;;;;;5008601;28;20541;-82
2023/06/09 06:35:50;;;;;;;4.15;3.85;;;;;;;;;;5006640;28;20044;-82
2023/06/09 06:38:16;;;;;;;4.45;4.15;;;;;;;;;;5008102;28;20046;-82
2023/06/09 06:40:42;;;;;;;4.43;4.13;;;;;;;;;;5004698;28;20092;-82
2023/06/09 06:43:08;;;;;;;4.10;3.90;;;;;;;;;;5004916;28;20053;-82
2023/06/09 06:45:34;;;;;;;5.53;4.68;;;;;;;;;;5006991;28;20049;-82
2023/06/09 06:48:01;;;;;;;4.70;4.40;;;;;;;;;;5005129;28;20101;-81
2023/06/09 06:50:27;;;;;;;4.50;4.20;;;;;;;;;;5008058;28;20420;-82
2023/06/09 06:52:53;;;;;;;4.55;4.30;;;;;;;;;;5002458;28;20041;-82
2023/06/09 06:55:19;;;;;;;4.40;4.10;;;;;;;;;;5003733;28;20046;-82
2023/06/09 06:57:45;;;;;;;4.80;4.40;;;;;;;;;;5004520;28;20499;-82
2023/06/09 07:00:14;;;;;;;4.50;4.30;;;;;;;;;;5008641;28;20041;-83
2023/06/09 07:02:40;;;;;;;4.10;3.80;;;;;;;;;;5006710;28;20571;-83
2023/06/09 07:05:06;;;;;;;4.38;4.18;;;;;;;;;;5018457;28;20046;-83
2023/06/09 07:07:33;;;;;;;4.22;4.03;;;;;;;;;;5003968;28;20323;-78
2023/06/09 07:09:59;;;;;;;4.57;4.20;;;;;;;;;;4979405;28;20049;-81
2023/06/09 07:12:25;;;;;;;4.25;4.05;;;;;;;;;;5003851;28;20048;-84
2023/06/09 07:14:51;;;;;;;4.45;4.05;;;;;;;;;;5004642;28;20073;-80
2023/06/09 07:17:17;;;;;;;4.68;4.38;;;;;;;;;;5002069;28;20128;-79
2023/06/09 07:19:43;;;;;;;4.85;4.55;;;;;;;;;;5015912;28;20555;-81
2023/06/09 07:22:09;;;;;;;4.70;4.40;;;;;;;;;;5002797;28;20038;-81
2023/06/09 07:24:35;;;;;;;4.80;4.50;;;;;;;;;;5004844;28;20082;-82
2023/06/09 07:27:01;;;;;;;5.47;5.07;;;;;;;;;;5005818;28;20046;-82
2023/06/09 07:29:27;;;;;;;4.28;4.07;;;;;;;;;;5005049;28;20046;-82
2023/06/09 07:31:53;;;;;;;5.00;4.63;;;;;;;;;;5002597;28;20515;-81
2023/06/09 07:34:19;;;;;;;5.32;4.60;;;;;;;;;;5007350;28;20030;-84
2023/06/09 07:36:50;;;;;;;3.92;3.72;;;;;;;;;;5004492;28;20064;-81
2023/06/09 07:39:20;;;;;;;4.43;4.13;;;;;;;;;;4998327;28;20107;-83
2023/06/09 07:41:46;;;;;;;4.65;4.38;;;;;;;;;;5005674;28;20050;-81
2023/06/09 07:44:12;;;;;;;4.18;3.95;;;;;;;;;;5007410;28;20495;-82
2023/06/09 07:46:37;;;;;;;4.65;4.38;;;;;;;;;;5003699;28;20052;-81
2023/06/09 07:49:03;;;;;;;4.60;4.30;;;;;;;;;;5000080;28;20499;-79
2023/06/09 07:51:30;;;;;;;4.40;4.10;;;;;;;;;;5005616;28;20041;-78
2023/06/09 07:53:56;;;;;;;4.15;3.95;;;;;;;;;;5014563;28;20105;-79
2023/06/09 07:56:22;;;;;;;4.40;4.10;;;;;;;;;;5007389;28;20038;-79
2023/06/09 07:58:49;;;;;;;4.18;3.97;;;;;;;;;;5004342;28;20034;-79
2023/06/09 08:01:15;;;;;;;4.15;3.85;;;;;;;;;;5002355;28;20399;-79
2023/06/09 08:03:41;;;;;;;5.32;4.93;;;;;;;;;;4987223;28;20145;-80
2023/06/09 08:06:08;;;;;;;5.15;4.75;;;;;;;;;;5004491;28;20547;-81
2023/06/09 08:08:34;;;;;;;4.35;4.00;;;;;;;;;;5007846;28;20469;-83
2023/06/09 08:11:00;;;;;;;4.43;4.20;;;;;;;;;;5003084;28;20041;-81
2023/06/09 08:13:27;;;;;;;5.10;4.60;;;;;;;;;;5000585;28;20038;-80
2023/06/09 08:15:53;;;;;;;5.47;5.00;;;;;;;;;;5002702;28;20057;-79
2023/06/09 08:18:20;;;;;;;4.90;4.70;;;;;;;;;;4997972;28;20056;-80
2023/06/09 08:20:46;;;;;;;4.93;4.63;;;;;;;;;;4997270;28;20092;-77
2023/06/09 08:23:12;;;;;;;4.75;4.45;;;;;;;;;;5003120;28;20045;-79
2023/06/09 08:25:38;;;;;;;4.70;4.50;;;;;;;;;;4987221;28;20056;-79
2023/06/09 08:28:04;;;;;;;5.22;4.95;;;;;;;;;;5006515;28;20080;-78
2023/06/09 08:30:31;;;;;;;5.68;5.25;;;;;;;;;;5001185;28;20095;-80
2023/06/09 08:32:57;;;;;;;5.10;4.85;;;;;;;;;;5002714;28;20546;-78
2023/06/09 08:35:23;;;;;;;5.57;5.05;;;;;;;;;;5004368;28;20050;-79
2023/06/09 08:37:50;;;;;;;5.30;5.00;;;;;;;;;;5003568;28;20048;-79
2023/06/09 08:40:16;;;;;;;5.78;5.47;;;;;;;;;;5002464;28;20042;-79
2023/06/09 08:42:42;;;;;;;5.25;4.95;;;;;;;;;;5002627;28;20046;-75
2023/06/09 08:45:08;;;;;;;5.55;5.25;;;;;;;;;;4995962;28;20565;-75
2023/06/09 08:47:37;;;;;;;5.00;4.80;;;;;;;;;;5006693;28;20038;-79
2023/06/09 08:50:03;;;;;;;4.82;4.50;;;;;;;;;;5000316;28;20042;-79
2023/06/09 08:52:29;;;;;;;4.68;4.43;;;;;;;;;;5001505;28;20068;-79
2023/06/09 08:54:56;;;;;;;5.43;5.13;;;;;;;;;;5000827;28;20053;-78
2023/06/09 08:57:22;;;;;;;6.65;5.22;;;;;;;;;;5002667;28;20492;-77
2023/06/09 08:59:48;;;;;;;6.28;5.50;;;;;;;;;;5000052;28;20069;-78
2023/06/09 09:02:14;;;;;;;6.00;4.97;;;;;;;;;;5002242;28;20570;-77
2023/06/09 09:04:40;;;;;;;5.47;5.15;;;;;;;;;;5001440;28;20041;-78
2023/06/09 09:07:07;;;;;;;5.22;4.95;;;;;;;;;;4998694;28;20053;-77
2023/06/09 09:09:33;;;;;;;5.50;5.10;;;;;;;;;;5000361;28;20038;-77
2023/06/09 09:11:59;;;;;;;5.43;5.05;;;;;;;;;;4999486;28;20089;-76
2023/06/09 09:14:25;;;;;;;6.13;5.63;;;;;;;;;;5005699;28;20060;-76
2023/06/09 09:16:51;;;;;;;5.50;5.30;;;;;;;;;;5001383;28;20037;-76
2023/06/09 09:19:27;;;;;;;4.93;4.63;;;;;;;;;;5002321;28;20096;-76
2023/06/09 09:22:02;;;;;;;5.28;4.97;;;;;;;;;;4999595;28;20057;-76
2023/06/09 09:24:32;;;;;;;5.43;5.13;;;;;;;;;;5002022;28;20138;-77
2023/06/09 09:26:58;;;;;;;4.80;4.50;;;;;;;;;;5002323;28;20057;-77
2023/06/09 09:29:26;;;;;;;4.85;4.65;;;;;;;;;;4999309;28;20121;-78
2023/06/09 09:31:55;;;;;;;4.93;4.70;;;;;;;;;;5004108;28;20030;-77
2023/06/09 09:34:21;;;;;;;5.55;5.25;;;;;;;;;;4987067;28;20048;-78
2023/06/09 09:36:47;;;;;;;5.38;4.68;;;;;;;;;;4987744;28;20034;-78
2023/06/09 09:39:15;;;;;;;5.45;5.15;;;;;;;;;;5017596;28;20033;-77
2023/06/09 09:42:00;;;;;;;5.05;4.75;;;;;;;;;;5003014;28;20611;-76
2023/06/09 09:44:26;;;;;;;5.00;4.72;;;;;;;;;;5004940;28;20049;-77
2023/06/09 09:46:52;;;;;;;5.15;4.75;;;;;;;;;;4987411;28;20521;-76
2023/06/09 09:49:23;;;;;;;4.57;4.32;;;;;;;;;;5003897;28;20050;-78
2023/06/09 09:51:48;;;;;;;5.53;5.15;;;;;;;;;;5001110;28;20041;-78
2023/06/09 09:54:15;;;;;;;4.38;4.18;;;;;;;;;;5016741;28;20049;-81
2023/06/09 09:56:41;;;;;;;4.80;4.40;;;;;;;;;;4999329;28;20056;-82
2023/06/09 09:59:07;;;;;;;7.70;6.97;;;;;;;;;;5009164;28;20137;-84
2023/06/09 10:01:33;;;;;;;7.78;6.55;;;;;;;;;;4994894;28;20115;-82
2023/06/09 10:03:59;;;;;;;5.97;5.53;;;;;;;;;;4998061;28;20574;-79
2023/06/09 10:06:29;;;;;;;6.38;5.97;;;;;;;;;;5012777;28;20049;-83
2023/06/09 10:08:57;;;;;;;5.53;5.22;;;;;;;;;;5013511;28;20057;-80
2023/06/09 10:11:23;;;;;;;6.05;5.20;;;;;;;;;;5024319;28;20061;-83
2023/06/09 10:13:50;;;;;;;5.28;4.93;;;;;;;;;;5009302;28;20042;-81
2023/06/09 10:16:16;;;;;;;4.13;3.90;;;;;;;;;;4994225;28;20444;-82
2023/06/09 10:18:42;;;;;;;4.38;4.18;;;;;;;;;;5007333;28;20046;-78
2023/06/09 10:21:08;;;;;;;4.35;4.15;;;;;;;;;;5006976;28;20060;-80
2023/06/09 10:23:34;;;;;;;4.63;4.43;;;;;;;;;;5009509;28;20057;-80
2023/06/09 10:26:01;;;;;;;4.28;4.00;;;;;;;;;;5006419;28;20053;-82
2023/06/09 10:28:27;;;;;;;4.70;4.40;;;;;;;;;;5022111;28;20069;-82
2023/06/09 10:30:53;;;;;;;5.05;4.75;;;22.40;99.90;;;;;;4992299;28;21038;-78
2023/06/09 10:33:30;;;;;;;5.03;4.72;;;22.40;77.10;;;;;;4993186;28;20045;-78
2023/06/09 10:36:00;;;;;;;5.47;5.05;;;22.30;76.90;;;;;;5000331;28;20415;-78
2023/06/09 10:38:28;;;;;;;6.28;4.50;;;22.30;76.90;;;;;;4998948;28;20045;-77
2023/06/09 10:41:15;;;;;;;8.77;5.10;;;22.30;75.50;;;;;;5020065;28;20037;-78
2023/06/09 10:44:08;;;;;;;5.13;4.80;;;22.30;75.10;;;;;;5003433;28;20100;-78
2023/06/09 10:46:50;;;;;;;4.60;4.22;;;22.30;75.60;;;;;;5005442;28;20034;-78
2023/06/09 10:49:35;;;;;;;4.32;4.13;;;22.40;75.70;;;;;;4989908;28;20137;-78
2023/06/09 10:52:01;;;;;;;5.05;4.53;;;22.40;75.80;;;;;;5001769;28;20030;-78
2023/06/09 10:54:27;;;;;;;4.38;4.18;;;22.40;75.90;;;;;;5022224;28;20033;-78
2023/06/09 10:57:00;;;;;;;4.97;4.68;;;22.30;75.80;;;;;;4988778;28;20038;-78
2023/06/09 10:59:26;;;;;;;4.70;4.30;;;22.40;75.70;;;;;;5023272;28;20042;-78
2023/06/09 11:02:20;;;;;;;4.85;4.45;;;22.40;75.60;;;;;;5005771;28;20050;-78
2023/06/09 11:04:49;;;;;;;4.90;4.60;;;22.40;75.60;;;;;;5004568;28;20050;-78
2023/06/09 11:07:18;;;;;;;5.13;4.80;;;22.40;75.50;;;;;;5000790;28;20053;-78
2023/06/09 11:09:47;;;;;;;4.53;4.28;;;22.40;75.50;;;;;;5006087;28;20422;-78
2023/06/09 11:12:24;;;;;;;4.03;3.72;;;22.50;75.40;;;;;;5003939;28;20054;-79
2023/06/09 11:14:56;;;;;;;4.80;4.43;;;22.40;75.30;;;;;;5005531;28;20563;-79
2023/06/09 11:17:25;;;;;;;5.00;4.60;;;22.50;75.30;;;;;;5008590;28;20100;-79
2023/06/09 11:19:52;;;;;;;4.70;4.50;;;22.50;75.10;;;;;;4989469;28;20505;-79
2023/06/09 11:22:18;;;;;;;4.80;4.50;;;22.50;75.10;;;;;;5002310;28;20073;-79
2023/06/09 11:24:50;;;;;;;4.15;3.85;;;22.50;75.00;;;;;;5007618;28;20504;-79
2023/06/09 11:27:20;;;;;;;4.68;4.28;;;22.60;74.90;;;;;;5003884;28;20481;-79
2023/06/09 11:30:07;;;;;;;4.47;4.18;;;22.60;74.80;;;;;;5006553;28;20050;-79
2023/06/09 11:32:55;;;;;;;4.15;3.90;;;22.60;74.60;;;;;;5009587;28;20061;-79
2023/06/09 11:35:30;;;;;;;4.53;4.32;;;22.60;74.50;;;;;;5009565;28;20065;-79
2023/06/09 11:38:02;;;;;;;4.20;4.00;;;22.60;74.40;;;;;;5004011;28;20049;-79
2023/06/09 11:40:50;;;;;;;4.00;3.80;;;22.60;74.30;;;;;;5006339;28;20049;-79
2023/06/09 11:43:16;;;;;;;4.13;3.92;;;22.70;74.20;;;;;;5002348;28;22017;-79
2023/06/09 11:45:41;;;;;;;4.90;4.50;;;22.70;74.10;;;;;;5005092;28;20046;-79
2023/06/09 11:48:08;;;;;;;3.97;3.78;;;22.70;74.10;;;;;;5006370;28;20563;-79
2023/06/09 11:50:40;;;;;;;4.40;4.00;;;22.70;74.00;;;;;;5006878;28;20244;-79
2023/06/09 11:53:10;;;;;;;4.43;4.10;;;22.70;73.90;;;;;;5005422;28;20665;-79
2023/06/09 11:55:36;;;;;;;4.15;3.80;;;22.70;73.80;;;;;;5005545;28;20100;-79
2023/06/09 11:58:02;;;;;;;3.80;3.60;;;22.70;73.80;;;;;;5003459;28;20050;-79
2023/06/09 12:00:29;;;;;;;4.30;4.10;;;22.70;73.80;;;;;;5003408;28;20044;-79
2023/06/09 12:02:56;;;;;;;3.53;3.33;;;22.70;73.60;;;;;;5004471;28;20055;-79
2023/06/09 12:05:22;;;;;;;3.90;3.70;;;22.70;73.70;;;;;;5020021;28;20136;-79
2023/06/09 12:07:47;;;;;;;4.03;3.83;;;22.80;73.60;;;;;;5005544;28;20052;-79
2023/06/09 12:10:14;;;;;;;3.85;3.60;;;22.80;73.60;;;;;;5003674;28;20046;-79
2023/06/09 12:12:49;;;;;;;3.65;3.45;;;22.70;73.60;;;;;;5004290;28;20122;-79
2023/06/09 12:15:15;;;;;;;4.20;4.00;;;22.70;73.50;;;;;;5003012;28;20070;-79
2023/06/09 12:17:41;;;;;;;3.80;3.60;;;22.80;73.60;;;;;;5010054;28;20068;-79
2023/06/09 12:20:28;;;;;;;3.80;3.60;;;22.80;73.60;;;;;;5006855;28;20062;-79
2023/06/09 12:22:55;;;;;;;3.80;3.50;;;22.80;73.60;;;;;;5003239;28;20038;-79
2023/06/09 12:25:25;;;;;;;4.30;4.03;;;22.80;73.40;;;;;;5001648;28;20050;-79
2023/06/09 12:27:51;;;;;;;4.50;4.20;;;22.80;73.40;;;;;;5003322;28;20038;-79
2023/06/09 12:30:37;;;;;;;3.70;3.50;;;22.80;73.40;;;;;;5017645;28;20046;-79
2023/06/09 12:33:07;;;;;;;3.63;3.42;;;22.80;73.20;;;;;;5002567;28;20048;-79
2023/06/09 12:35:39;;;;;;;3.63;3.42;;;22.80;74.10;;;;;;5002621;28;20046;-79
2023/06/09 12:38:15;;;;;;;3.40;3.08;;;22.80;73.30;;;;;;5003991;28;20056;-79
2023/06/09 12:40:51;;;;;;;3.70;3.50;;;22.80;73.40;;;;;;5000775;28;20037;-79
2023/06/09 12:43:18;;;;;;;3.63;3.53;;;22.80;73.30;;;;;;5015655;28;20092;-79
2023/06/09 12:45:44;;;;;;;3.33;3.22;;;22.80;73.40;;;;;;4988610;28;20048;-79
2023/06/09 12:48:10;;;;;;;3.42;3.22;;;22.80;73.40;;;;;;4999924;28;20204;-79
2023/06/09 12:50:36;;;;;;;3.50;3.30;;;22.80;73.60;;;;;;5006295;28;20041;-79
2023/06/09 12:53:02;;;;;;;3.95;3.75;;;22.80;73.60;;;;;;5002208;28;20046;-79
2023/06/09 12:55:27;;;;;;;3.55;3.25;;;22.70;73.50;;;;;;5003624;28;20049;-79
2023/06/09 12:57:53;;;;;;;2.97;2.88;;;22.80;73.70;;;;;;5004652;28;20508;-79
2023/06/09 13:00:19;;;;;;;3.60;3.40;;;22.70;73.50;;;;;;5003246;28;20030;-79
2023/06/09 13:02:45;;;;;;;3.22;3.03;;;22.70;73.50;;;;;;5003439;28;20077;-79
2023/06/09 13:05:10;;;;;;;3.85;3.65;;;22.70;73.50;;;;;;5006717;28;20065;-79
2023/06/09 13:07:36;;;;;;;3.30;3.10;;;22.70;73.60;;;;;;5001249;28;20103;-79
2023/06/09 13:10:02;;;;;;;3.10;3.00;;;22.70;73.60;;;;;;5002034;28;20048;-79
2023/06/09 13:12:27;;;;;;;3.38;3.13;;;22.70;73.50;;;;;;5000358;28;20053;-79
2023/06/09 13:14:53;;;;;;;3.78;3.58;;;22.70;73.50;;;;;;5004422;28;20124;-79
2023/06/09 13:17:18;;;;;;;3.50;3.40;;;22.80;73.70;;;;;;5005105;28;20042;-79
2023/06/09 13:19:44;;;;;;;2.80;2.70;;;22.70;73.60;;;;;;5004587;28;20057;-79
2023/06/09 13:22:10;;;;;;;3.35;3.25;;;22.70;73.50;;;;;;5002391;28;20405;-79
2023/06/09 13:24:36;;;;;;;3.00;2.90;;;22.70;73.60;;;;;;5001549;28;20052;-79
2023/06/09 13:27:03;;;;;;;3.20;3.10;;;22.70;73.60;;;;;;5002937;28;20042;-79
2023/06/09 13:29:28;;;;;;;3.08;2.90;;;22.70;73.60;;;;;;5003627;28;20096;-79
2023/06/09 13:31:54;;;;;;;3.08;2.97;;;22.70;73.60;;;;;;5001504;28;20057;-79
2023/06/09 13:34:19;;;;;;;3.00;2.90;;;22.70;73.60;;;;;;5002834;28;20065;-79
2023/06/09 13:36:45;;;;;;;2.90;2.80;;;22.70;73.60;;;;;;5004244;28;20061;-79
2023/06/09 13:39:11;;;;;;;3.13;2.92;;;22.70;73.50;;;;;;5002448;28;20053;-79
2023/06/09 13:41:37;;;;;;;2.90;2.80;;;22.70;73.60;;;;;;5004297;28;20507;-79
2023/06/09 13:44:05;;;;;;;2.58;2.47;;;22.70;73.60;;;;;;5001065;28;20487;-79
2023/06/09 13:46:31;;;;;;;2.80;2.70;;;22.70;73.60;;;;;;5004699;28;20416;-79
2023/06/09 13:48:57;;;;;;;2.80;2.70;;;22.70;73.60;;;;;;5004370;28;20048;-79
2023/06/09 13:51:22;;;;;;;2.92;2.83;;;22.70;73.60;;;;;;5000217;28;20092;-79
2023/06/09 13:53:48;;;;;;;2.50;2.40;;;22.70;73.60;;;;;;5004595;28;20038;-79
2023/06/09 13:56:16;;;;;;;2.70;2.60;;;22.70;73.60;;;;;;5004574;28;20065;-79
2023/06/09 13:58:42;;;;;;;2.92;2.72;;;22.70;73.60;;;;;;5003631;28;20034;-79
2023/06/09 14:01:08;;;;;;;2.80;2.70;;;22.70;73.70;;;;;;5000564;28;20056;-79
2023/06/09 14:03:34;;;;;;;2.75;2.55;;;22.70;73.60;;;;;;5004231;28;20369;-79
2023/06/09 14:05:59;;;;;;;2.88;2.78;;;22.70;73.70;;;;;;5004717;28;20113;-79
2023/06/09 14:08:25;;;;;;;2.90;2.70;;;22.70;73.70;;;;;;5003704;28;20173;-79
2023/06/09 14:10:51;;;;;;;2.58;2.47;;;22.70;73.70;;;;;;5005762;28;20124;-79